sensor_id;sensor_type;location;lat;lon;timestamp;P1;durP1;ratioP1;P2;durP2;ratioP2
24157;SDS011;12316;50.904;4.200;2023-04-10T00:02:15;15.20;;;12.20;;
24157;SDS011;12316;50.904;4.200;2023-04-10T00:04:41;14.63;;;11.85;;
24157;SDS011;12316;50.904;4.200;2023-04-10T00:07:07;12.80;;;10.57;;
24157;SDS011;12316;50.904;4.200;2023-04-10T00:09:32;12.40;;;10.15;;
24157;SDS011;12316;50.904;4.200;2023-04-10T00:11:58;12.52;;;11.02;;
24157;SDS011;12316;50.904;4.200;2023-04-10T00:14:23;14.18;;;10.70;;
24157;SDS011;12316;50.904;4.200;2023-04-10T00:16:49;12.52;;;10.68;;
24157;SDS011;12316;50.904;4.200;2023-04-10T00:19:15;13.70;;;10.32;;
24157;SDS011;12316;50.904;4.200;2023-04-10T00:21:42;12.45;;;10.25;;
24157;SDS011;12316;50.904;4.200;2023-04-10T00:24:08;10.23;;;9.13;;
24157;SDS011;12316;50.904;4.200;2023-04-10T00:26:34;12.73;;;10.27;;
24157;SDS011;12316;50.904;4.200;2023-04-10T00:29:01;12.70;;;9.50;;
24157;SDS011;12316;50.904;4.200;2023-04-10T00:31:27;11.40;;;9.65;;
24157;SDS011;12316;50.904;4.200;2023-04-10T00:33:53;11.75;;;9.75;;
24157;SDS011;12316;50.904;4.200;2023-04-10T00:36:19;11.85;;;9.35;;
24157;SDS011;12316;50.904;4.200;2023-04-10T00:38:45;10.60;;;8.80;;
24157;SDS011;12316;50.904;4.200;2023-04-10T00:41:11;12.25;;;9.27;;
24157;SDS011;12316;50.904;4.200;2023-04-10T00:43:37;11.50;;;9.48;;
24157;SDS011;12316;50.904;4.200;2023-04-10T00:46:03;11.25;;;9.00;;
24157;SDS011;12316;50.904;4.200;2023-04-10T00:48:29;9.88;;;8.88;;
24157;SDS011;12316;50.904;4.200;2023-04-10T00:50:55;11.18;;;9.43;;
24157;SDS011;12316;50.904;4.200;2023-04-10T00:53:21;12.32;;;9.63;;
24157;SDS011;12316;50.904;4.200;2023-04-10T00:55:47;12.13;;;9.00;;
24157;SDS011;12316;50.904;4.200;2023-04-10T00:58:14;10.20;;;8.90;;
24157;SDS011;12316;50.904;4.200;2023-04-10T01:00:40;11.60;;;8.77;;
24157;SDS011;12316;50.904;4.200;2023-04-10T01:03:06;10.38;;;8.15;;
24157;SDS011;12316;50.904;4.200;2023-04-10T01:08:33;10.50;;;8.07;;
24157;SDS011;12316;50.904;4.200;2023-04-10T01:16:52;11.85;;;8.43;;
24157;SDS011;12316;50.904;4.200;2023-04-10T01:22:33;9.98;;;8.30;;
24157;SDS011;12316;50.904;4.200;2023-04-10T01:30:52;10.45;;;7.95;;
24157;SDS011;12316;50.904;4.200;2023-04-10T01:33:21;11.45;;;8.60;;
24157;SDS011;12316;50.904;4.200;2023-04-10T01:35:53;10.70;;;7.85;;
24157;SDS011;12316;50.904;4.200;2023-04-10T01:38:23;10.00;;;8.32;;
24157;SDS011;12316;50.904;4.200;2023-04-10T01:40:51;11.23;;;8.38;;
24157;SDS011;12316;50.904;4.200;2023-04-10T01:43:18;9.93;;;7.80;;
24157;SDS011;12316;50.904;4.200;2023-04-10T01:45:46;9.10;;;7.47;;
24157;SDS011;12316;50.904;4.200;2023-04-10T01:48:15;10.65;;;7.60;;
24157;SDS011;12316;50.904;4.200;2023-04-10T01:50:42;9.60;;;7.78;;
24157;SDS011;12316;50.904;4.200;2023-04-10T01:53:10;8.70;;;7.78;;
24157;SDS011;12316;50.904;4.200;2023-04-10T01:55:36;8.52;;;7.63;;
24157;SDS011;12316;50.904;4.200;2023-04-10T01:58:03;10.27;;;7.80;;
24157;SDS011;12316;50.904;4.200;2023-04-10T02:00:30;9.10;;;7.47;;
24157;SDS011;12316;50.904;4.200;2023-04-10T02:03:02;9.00;;;7.50;;
24157;SDS011;12316;50.904;4.200;2023-04-10T02:05:29;9.95;;;7.45;;
24157;SDS011;12316;50.904;4.200;2023-04-10T02:13:39;10.75;;;7.63;;
24157;SDS011;12316;50.904;4.200;2023-04-10T02:16:06;9.05;;;7.30;;
24157;SDS011;12316;50.904;4.200;2023-04-10T02:18:35;9.70;;;8.13;;
24157;SDS011;12316;50.904;4.200;2023-04-10T02:21:02;8.82;;;7.68;;
24157;SDS011;12316;50.904;4.200;2023-04-10T02:23:28;8.57;;;7.53;;
24157;SDS011;12316;50.904;4.200;2023-04-10T02:25:54;8.15;;;7.20;;
24157;SDS011;12316;50.904;4.200;2023-04-10T02:28:21;10.23;;;7.60;;
24157;SDS011;12316;50.904;4.200;2023-04-10T02:30:46;9.52;;;7.55;;
24157;SDS011;12316;50.904;4.200;2023-04-10T02:33:12;8.55;;;7.65;;
24157;SDS011;12316;50.904;4.200;2023-04-10T02:35:38;10.27;;;7.47;;
24157;SDS011;12316;50.904;4.200;2023-04-10T02:38:03;8.82;;;7.35;;
24157;SDS011;12316;50.904;4.200;2023-04-10T02:40:29;8.73;;;7.60;;
24157;SDS011;12316;50.904;4.200;2023-04-10T02:42:55;8.63;;;7.22;;
24157;SDS011;12316;50.904;4.200;2023-04-10T02:45:20;9.05;;;7.57;;
24157;SDS011;12316;50.904;4.200;2023-04-10T02:47:46;9.07;;;7.35;;
24157;SDS011;12316;50.904;4.200;2023-04-10T02:50:11;8.45;;;7.25;;
24157;SDS011;12316;50.904;4.200;2023-04-10T02:52:37;8.23;;;7.13;;
24157;SDS011;12316;50.904;4.200;2023-04-10T02:55:03;8.60;;;7.28;;
24157;SDS011;12316;50.904;4.200;2023-04-10T02:57:29;8.75;;;6.93;;
24157;SDS011;12316;50.904;4.200;2023-04-10T02:59:55;9.27;;;7.30;;
24157;SDS011;12316;50.904;4.200;2023-04-10T03:02:22;8.55;;;7.20;;
24157;SDS011;12316;50.904;4.200;2023-04-10T03:04:47;7.97;;;7.18;;
24157;SDS011;12316;50.904;4.200;2023-04-10T03:07:13;9.88;;;7.47;;
24157;SDS011;12316;50.904;4.200;2023-04-10T03:09:38;9.02;;;7.40;;
24157;SDS011;12316;50.904;4.200;2023-04-10T03:12:04;8.75;;;7.00;;
24157;SDS011;12316;50.904;4.200;2023-04-10T03:14:30;8.73;;;7.22;;
24157;SDS011;12316;50.904;4.200;2023-04-10T03:16:55;8.48;;;7.05;;
24157;SDS011;12316;50.904;4.200;2023-04-10T03:19:21;10.43;;;7.28;;
24157;SDS011;12316;50.904;4.200;2023-04-10T03:21:47;10.63;;;7.57;;
24157;SDS011;12316;50.904;4.200;2023-04-10T03:24:12;11.18;;;7.28;;
24157;SDS011;12316;50.904;4.200;2023-04-10T03:26:38;9.85;;;7.40;;
24157;SDS011;12316;50.904;4.200;2023-04-10T03:29:03;9.60;;;7.50;;
24157;SDS011;12316;50.904;4.200;2023-04-10T03:31:29;9.68;;;7.60;;
24157;SDS011;12316;50.904;4.200;2023-04-10T03:33:55;10.18;;;7.60;;
24157;SDS011;12316;50.904;4.200;2023-04-10T03:36:21;9.35;;;7.53;;
24157;SDS011;12316;50.904;4.200;2023-04-10T03:38:46;8.82;;;6.90;;
24157;SDS011;12316;50.904;4.200;2023-04-10T03:41:12;10.25;;;7.55;;
24157;SDS011;12316;50.904;4.200;2023-04-10T03:43:38;10.32;;;7.38;;
24157;SDS011;12316;50.904;4.200;2023-04-10T03:46:03;10.30;;;7.45;;
24157;SDS011;12316;50.904;4.200;2023-04-10T03:48:29;9.57;;;7.72;;
24157;SDS011;12316;50.904;4.200;2023-04-10T03:50:56;8.48;;;6.85;;
24157;SDS011;12316;50.904;4.200;2023-04-10T03:53:22;9.45;;;7.25;;
24157;SDS011;12316;50.904;4.200;2023-04-10T03:55:48;9.55;;;7.43;;
24157;SDS011;12316;50.904;4.200;2023-04-10T03:58:16;9.40;;;7.05;;
24157;SDS011;12316;50.904;4.200;2023-04-10T04:00:42;9.05;;;6.78;;
24157;SDS011;12316;50.904;4.200;2023-04-10T04:03:08;8.98;;;6.57;;
24157;SDS011;12316;50.904;4.200;2023-04-10T04:05:33;9.07;;;6.95;;
24157;SDS011;12316;50.904;4.200;2023-04-10T04:07:59;10.27;;;6.90;;
24157;SDS011;12316;50.904;4.200;2023-04-10T04:10:25;8.73;;;6.72;;
24157;SDS011;12316;50.904;4.200;2023-04-10T04:12:50;9.20;;;6.50;;
24157;SDS011;12316;50.904;4.200;2023-04-10T04:15:16;9.20;;;6.35;;
24157;SDS011;12316;50.904;4.200;2023-04-10T04:17:42;10.13;;;7.30;;
24157;SDS011;12316;50.904;4.200;2023-04-10T04:20:07;10.15;;;7.22;;
24157;SDS011;12316;50.904;4.200;2023-04-10T04:22:33;8.35;;;6.70;;
24157;SDS011;12316;50.904;4.200;2023-04-10T04:24:59;11.32;;;6.88;;
24157;SDS011;12316;50.904;4.200;2023-04-10T04:27:24;9.80;;;7.20;;
24157;SDS011;12316;50.904;4.200;2023-04-10T04:29:50;9.65;;;6.97;;
24157;SDS011;12316;50.904;4.200;2023-04-10T04:32:15;8.68;;;6.88;;
24157;SDS011;12316;50.904;4.200;2023-04-10T04:34:41;8.40;;;6.65;;
24157;SDS011;12316;50.904;4.200;2023-04-10T04:37:07;8.50;;;6.60;;
24157;SDS011;12316;50.904;4.200;2023-04-10T04:39:32;8.30;;;6.82;;
24157;SDS011;12316;50.904;4.200;2023-04-10T04:41:58;7.30;;;6.28;;
24157;SDS011;12316;50.904;4.200;2023-04-10T04:44:25;8.98;;;6.50;;
24157;SDS011;12316;50.904;4.200;2023-04-10T04:46:50;7.85;;;6.32;;
24157;SDS011;12316;50.904;4.200;2023-04-10T04:49:16;7.60;;;6.43;;
24157;SDS011;12316;50.904;4.200;2023-04-10T04:51:41;8.88;;;6.95;;
24157;SDS011;12316;50.904;4.200;2023-04-10T04:54:07;8.77;;;6.82;;
24157;SDS011;12316;50.904;4.200;2023-04-10T04:56:33;7.50;;;6.53;;
24157;SDS011;12316;50.904;4.200;2023-04-10T04:58:58;8.70;;;6.53;;
24157;SDS011;12316;50.904;4.200;2023-04-10T05:01:24;10.02;;;6.55;;
24157;SDS011;12316;50.904;4.200;2023-04-10T05:03:49;7.13;;;6.40;;
24157;SDS011;12316;50.904;4.200;2023-04-10T05:06:15;9.10;;;6.82;;
24157;SDS011;12316;50.904;4.200;2023-04-10T05:08:42;7.57;;;6.47;;
24157;SDS011;12316;50.904;4.200;2023-04-10T05:11:08;7.22;;;6.10;;
24157;SDS011;12316;50.904;4.200;2023-04-10T05:13:33;8.00;;;6.78;;
24157;SDS011;12316;50.904;4.200;2023-04-10T05:15:59;7.55;;;6.40;;
24157;SDS011;12316;50.904;4.200;2023-04-10T05:18:24;7.82;;;6.32;;
24157;SDS011;12316;50.904;4.200;2023-04-10T05:20:50;7.88;;;7.00;;
24157;SDS011;12316;50.904;4.200;2023-04-10T05:23:16;8.65;;;6.57;;
24157;SDS011;12316;50.904;4.200;2023-04-10T05:25:41;7.90;;;6.95;;
24157;SDS011;12316;50.904;4.200;2023-04-10T05:28:07;7.82;;;6.68;;
24157;SDS011;12316;50.904;4.200;2023-04-10T05:30:32;8.48;;;6.78;;
24157;SDS011;12316;50.904;4.200;2023-04-10T05:32:58;8.55;;;6.35;;
24157;SDS011;12316;50.904;4.200;2023-04-10T05:35:24;7.50;;;6.25;;
24157;SDS011;12316;50.904;4.200;2023-04-10T05:37:49;9.18;;;7.07;;
24157;SDS011;12316;50.904;4.200;2023-04-10T05:40:15;9.88;;;6.25;;
24157;SDS011;12316;50.904;4.200;2023-04-10T05:42:41;7.85;;;6.13;;
24157;SDS011;12316;50.904;4.200;2023-04-10T05:45:07;7.90;;;6.47;;
24157;SDS011;12316;50.904;4.200;2023-04-10T05:47:33;8.45;;;6.47;;
24157;SDS011;12316;50.904;4.200;2023-04-10T05:49:58;8.57;;;6.93;;
24157;SDS011;12316;50.904;4.200;2023-04-10T05:52:25;9.00;;;6.45;;
24157;SDS011;12316;50.904;4.200;2023-04-10T05:54:50;9.85;;;6.32;;
24157;SDS011;12316;50.904;4.200;2023-04-10T05:57:16;9.65;;;6.78;;
24157;SDS011;12316;50.904;4.200;2023-04-10T05:59:42;10.57;;;7.00;;
24157;SDS011;12316;50.904;4.200;2023-04-10T06:02:07;9.55;;;6.57;;
24157;SDS011;12316;50.904;4.200;2023-04-10T06:04:33;9.13;;;6.60;;
24157;SDS011;12316;50.904;4.200;2023-04-10T06:06:58;9.27;;;6.75;;
24157;SDS011;12316;50.904;4.200;2023-04-10T06:09:25;9.80;;;6.60;;
24157;SDS011;12316;50.904;4.200;2023-04-10T06:11:50;9.63;;;6.55;;
24157;SDS011;12316;50.904;4.200;2023-04-10T06:14:18;9.88;;;6.85;;
24157;SDS011;12316;50.904;4.200;2023-04-10T06:16:44;7.97;;;6.40;;
24157;SDS011;12316;50.904;4.200;2023-04-10T06:19:09;10.27;;;6.80;;
24157;SDS011;12316;50.904;4.200;2023-04-10T06:21:35;9.40;;;6.72;;
24157;SDS011;12316;50.904;4.200;2023-04-10T06:24:01;9.70;;;6.60;;
24157;SDS011;12316;50.904;4.200;2023-04-10T06:26:26;11.55;;;7.03;;
24157;SDS011;12316;50.904;4.200;2023-04-10T06:28:52;8.63;;;6.35;;
24157;SDS011;12316;50.904;4.200;2023-04-10T06:31:18;10.18;;;6.88;;
24157;SDS011;12316;50.904;4.200;2023-04-10T06:33:48;8.70;;;6.30;;
24157;SDS011;12316;50.904;4.200;2023-04-10T06:36:14;8.25;;;6.70;;
24157;SDS011;12316;50.904;4.200;2023-04-10T06:38:40;6.40;;;5.55;;
24157;SDS011;12316;50.904;4.200;2023-04-10T06:41:06;8.13;;;6.22;;
24157;SDS011;12316;50.904;4.200;2023-04-10T06:43:35;8.32;;;6.60;;
24157;SDS011;12316;50.904;4.200;2023-04-10T06:46:02;7.53;;;6.30;;
24157;SDS011;12316;50.904;4.200;2023-04-10T06:48:29;7.80;;;6.47;;
24157;SDS011;12316;50.904;4.200;2023-04-10T06:50:56;8.63;;;6.25;;
24157;SDS011;12316;50.904;4.200;2023-04-10T06:53:24;8.18;;;6.20;;
24157;SDS011;12316;50.904;4.200;2023-04-10T06:55:50;9.07;;;6.57;;
24157;SDS011;12316;50.904;4.200;2023-04-10T06:58:15;9.20;;;6.65;;
24157;SDS011;12316;50.904;4.200;2023-04-10T07:00:42;7.78;;;6.32;;
24157;SDS011;12316;50.904;4.200;2023-04-10T07:03:08;8.00;;;6.03;;
24157;SDS011;12316;50.904;4.200;2023-04-10T07:05:33;7.78;;;6.30;;
24157;SDS011;12316;50.904;4.200;2023-04-10T07:07:59;7.10;;;6.07;;
24157;SDS011;12316;50.904;4.200;2023-04-10T07:10:24;7.65;;;6.30;;
24157;SDS011;12316;50.904;4.200;2023-04-10T07:12:50;7.50;;;5.88;;
24157;SDS011;12316;50.904;4.200;2023-04-10T07:15:16;8.85;;;6.20;;
24157;SDS011;12316;50.904;4.200;2023-04-10T07:17:42;6.60;;;5.85;;
24157;SDS011;12316;50.904;4.200;2023-04-10T07:20:07;6.85;;;5.80;;
24157;SDS011;12316;50.904;4.200;2023-04-10T07:22:33;7.03;;;6.20;;
24157;SDS011;12316;50.904;4.200;2023-04-10T07:24:59;9.77;;;6.55;;
24157;SDS011;12316;50.904;4.200;2023-04-10T07:27:25;8.00;;;6.22;;
24157;SDS011;12316;50.904;4.200;2023-04-10T07:29:53;6.95;;;6.25;;
24157;SDS011;12316;50.904;4.200;2023-04-10T07:32:19;6.43;;;5.70;;
24157;SDS011;12316;50.904;4.200;2023-04-10T07:34:44;7.43;;;5.68;;
24157;SDS011;12316;50.904;4.200;2023-04-10T07:37:10;7.18;;;5.93;;
24157;SDS011;12316;50.904;4.200;2023-04-10T07:39:36;6.35;;;5.60;;
24157;SDS011;12316;50.904;4.200;2023-04-10T07:42:01;7.68;;;5.93;;
24157;SDS011;12316;50.904;4.200;2023-04-10T07:44:27;7.07;;;5.80;;
24157;SDS011;12316;50.904;4.200;2023-04-10T07:46:52;7.85;;;5.95;;
24157;SDS011;12316;50.904;4.200;2023-04-10T07:49:19;7.00;;;6.30;;
24157;SDS011;12316;50.904;4.200;2023-04-10T07:51:45;6.90;;;5.75;;
24157;SDS011;12316;50.904;4.200;2023-04-10T07:54:10;6.47;;;5.75;;
24157;SDS011;12316;50.904;4.200;2023-04-10T07:56:36;8.27;;;6.00;;
24157;SDS011;12316;50.904;4.200;2023-04-10T07:59:02;6.70;;;5.88;;
24157;SDS011;12316;50.904;4.200;2023-04-10T08:01:27;7.85;;;5.78;;
24157;SDS011;12316;50.904;4.200;2023-04-10T08:03:53;6.70;;;5.72;;
24157;SDS011;12316;50.904;4.200;2023-04-10T08:06:20;6.63;;;5.93;;
24157;SDS011;12316;50.904;4.200;2023-04-10T08:08:46;8.20;;;5.90;;
24157;SDS011;12316;50.904;4.200;2023-04-10T08:11:22;8.43;;;5.80;;
24157;SDS011;12316;50.904;4.200;2023-04-10T08:13:50;6.55;;;5.70;;
24157;SDS011;12316;50.904;4.200;2023-04-10T08:16:21;5.97;;;5.43;;
24157;SDS011;12316;50.904;4.200;2023-04-10T08:18:48;6.38;;;5.78;;
24157;SDS011;12316;50.904;4.200;2023-04-10T08:21:13;6.40;;;5.80;;
24157;SDS011;12316;50.904;4.200;2023-04-10T08:23:39;6.38;;;5.70;;
24157;SDS011;12316;50.904;4.200;2023-04-10T08:26:05;6.00;;;5.40;;
24157;SDS011;12316;50.904;4.200;2023-04-10T08:28:30;6.10;;;5.50;;
24157;SDS011;12316;50.904;4.200;2023-04-10T08:30:56;6.25;;;5.63;;
24157;SDS011;12316;50.904;4.200;2023-04-10T08:33:22;6.07;;;5.43;;
24157;SDS011;12316;50.904;4.200;2023-04-10T08:35:48;6.20;;;5.60;;
24157;SDS011;12316;50.904;4.200;2023-04-10T08:38:13;5.65;;;5.07;;
24157;SDS011;12316;50.904;4.200;2023-04-10T08:40:39;6.03;;;5.40;;
24157;SDS011;12316;50.904;4.200;2023-04-10T08:43:05;6.28;;;5.68;;
24157;SDS011;12316;50.904;4.200;2023-04-10T08:45:30;7.57;;;5.63;;
24157;SDS011;12316;50.904;4.200;2023-04-10T08:47:56;6.38;;;5.78;;
24157;SDS011;12316;50.904;4.200;2023-04-10T08:50:24;7.88;;;5.38;;
24157;SDS011;12316;50.904;4.200;2023-04-10T08:52:50;6.90;;;5.70;;
24157;SDS011;12316;50.904;4.200;2023-04-10T08:55:18;6.13;;;5.53;;
24157;SDS011;12316;50.904;4.200;2023-04-10T08:57:44;7.90;;;5.80;;
24157;SDS011;12316;50.904;4.200;2023-04-10T09:00:10;6.13;;;5.53;;
24157;SDS011;12316;50.904;4.200;2023-04-10T09:02:39;6.10;;;5.45;;
24157;SDS011;12316;50.904;4.200;2023-04-10T09:05:05;6.25;;;5.63;;
24157;SDS011;12316;50.904;4.200;2023-04-10T09:07:36;6.10;;;5.50;;
24157;SDS011;12316;50.904;4.200;2023-04-10T09:10:01;7.43;;;5.70;;
24157;SDS011;12316;50.904;4.200;2023-04-10T09:12:27;6.22;;;5.50;;
24157;SDS011;12316;50.904;4.200;2023-04-10T09:14:52;6.07;;;5.43;;
24157;SDS011;12316;50.904;4.200;2023-04-10T09:17:21;6.68;;;5.30;;
24157;SDS011;12316;50.904;4.200;2023-04-10T09:19:50;6.93;;;5.65;;
24157;SDS011;12316;50.904;4.200;2023-04-10T09:22:32;6.10;;;5.50;;
24157;SDS011;12316;50.904;4.200;2023-04-10T09:25:00;5.63;;;5.03;;
24157;SDS011;12316;50.904;4.200;2023-04-10T09:27:31;6.03;;;5.43;;
24157;SDS011;12316;50.904;4.200;2023-04-10T09:30:02;5.70;;;5.10;;
24157;SDS011;12316;50.904;4.200;2023-04-10T09:32:36;5.95;;;5.15;;
24157;SDS011;12316;50.904;4.200;2023-04-10T09:35:02;5.55;;;4.78;;
24157;SDS011;12316;50.904;4.200;2023-04-10T09:37:30;5.90;;;5.40;;
24157;SDS011;12316;50.904;4.200;2023-04-10T09:39:56;5.53;;;5.03;;
24157;SDS011;12316;50.904;4.200;2023-04-10T09:42:31;6.00;;;5.40;;
24157;SDS011;12316;50.904;4.200;2023-04-10T09:45:04;5.60;;;5.10;;
24157;SDS011;12316;50.904;4.200;2023-04-10T09:47:30;5.65;;;4.95;;
24157;SDS011;12316;50.904;4.200;2023-04-10T09:49:57;5.65;;;4.97;;
24157;SDS011;12316;50.904;4.200;2023-04-10T09:52:30;5.85;;;5.25;;
24157;SDS011;12316;50.904;4.200;2023-04-10T09:54:57;7.65;;;5.43;;
24157;SDS011;12316;50.904;4.200;2023-04-10T09:57:29;5.32;;;4.82;;
24157;SDS011;12316;50.904;4.200;2023-04-10T09:59:57;5.40;;;4.90;;
24157;SDS011;12316;50.904;4.200;2023-04-10T10:02:25;6.22;;;4.90;;
24157;SDS011;12316;50.904;4.200;2023-04-10T10:04:53;7.75;;;5.00;;
24157;SDS011;12316;50.904;4.200;2023-04-10T10:07:20;5.55;;;4.93;;
24157;SDS011;12316;50.904;4.200;2023-04-10T10:09:47;5.82;;;5.10;;
24157;SDS011;12316;50.904;4.200;2023-04-10T10:12:23;7.28;;;4.95;;
24157;SDS011;12316;50.904;4.200;2023-04-10T10:20:37;6.55;;;4.82;;
24157;SDS011;12316;50.904;4.200;2023-04-10T10:23:05;4.70;;;4.30;;
24157;SDS011;12316;50.904;4.200;2023-04-10T10:25:33;5.85;;;4.97;;
24157;SDS011;12316;50.904;4.200;2023-04-10T10:28:01;7.05;;;5.05;;
24157;SDS011;12316;50.904;4.200;2023-04-10T10:30:28;5.50;;;4.88;;
24157;SDS011;12316;50.904;4.200;2023-04-10T10:32:59;5.40;;;4.68;;
24157;SDS011;12316;50.904;4.200;2023-04-10T10:35:26;5.85;;;5.07;;
24157;SDS011;12316;50.904;4.200;2023-04-10T10:37:54;6.55;;;4.88;;
24157;SDS011;12316;50.904;4.200;2023-04-10T10:40:21;5.47;;;4.90;;
24157;SDS011;12316;50.904;4.200;2023-04-10T10:43:11;6.32;;;4.82;;
24157;SDS011;12316;50.904;4.200;2023-04-10T10:46:03;7.95;;;5.32;;
24157;SDS011;12316;50.904;4.200;2023-04-10T10:48:33;6.75;;;4.45;;
24157;SDS011;12316;50.904;4.200;2023-04-10T10:50:58;5.30;;;4.80;;
24157;SDS011;12316;50.904;4.200;2023-04-10T10:53:36;6.53;;;4.65;;
24157;SDS011;12316;50.904;4.200;2023-04-10T10:58:49;5.00;;;4.30;;
24157;SDS011;12316;50.904;4.200;2023-04-10T11:01:16;4.70;;;4.20;;
24157;SDS011;12316;50.904;4.200;2023-04-10T11:03:43;6.00;;;4.22;;
24157;SDS011;12316;50.904;4.200;2023-04-10T11:06:19;5.03;;;4.38;;
24157;SDS011;12316;50.904;4.200;2023-04-10T11:08:47;6.00;;;4.50;;
24157;SDS011;12316;50.904;4.200;2023-04-10T11:11:14;8.43;;;4.20;;
24157;SDS011;12316;50.904;4.200;2023-04-10T11:16:20;4.85;;;4.35;;
24157;SDS011;12316;50.904;4.200;2023-04-10T11:21:19;4.25;;;3.85;;
24157;SDS011;12316;50.904;4.200;2023-04-10T11:31:44;4.68;;;3.47;;
24157;SDS011;12316;50.904;4.200;2023-04-10T11:34:10;6.55;;;3.83;;
24157;SDS011;12316;50.904;4.200;2023-04-10T11:36:40;4.63;;;3.88;;
24157;SDS011;12316;50.904;4.200;2023-04-10T11:39:08;4.15;;;3.75;;
24157;SDS011;12316;50.904;4.200;2023-04-10T11:41:40;4.50;;;3.40;;
24157;SDS011;12316;50.904;4.200;2023-04-10T11:44:07;3.80;;;3.50;;
24157;SDS011;12316;50.904;4.200;2023-04-10T11:46:38;5.30;;;3.50;;
24157;SDS011;12316;50.904;4.200;2023-04-10T11:49:06;3.67;;;3.22;;
24157;SDS011;12316;50.904;4.200;2023-04-10T11:51:37;4.82;;;3.70;;
24157;SDS011;12316;50.904;4.200;2023-04-10T11:56:36;3.50;;;3.20;;
24157;SDS011;12316;50.904;4.200;2023-04-10T11:59:03;3.95;;;3.45;;
24157;SDS011;12316;50.904;4.200;2023-04-10T12:01:32;4.07;;;3.67;;
24157;SDS011;12316;50.904;4.200;2023-04-10T12:03:58;4.35;;;3.38;;
24157;SDS011;12316;50.904;4.200;2023-04-10T12:06:24;4.05;;;3.40;;
24157;SDS011;12316;50.904;4.200;2023-04-10T12:08:51;4.20;;;3.45;;
24157;SDS011;12316;50.904;4.200;2023-04-10T12:11:18;4.20;;;3.72;;
24157;SDS011;12316;50.904;4.200;2023-04-10T12:13:45;5.40;;;3.70;;
24157;SDS011;12316;50.904;4.200;2023-04-10T12:16:12;4.90;;;3.80;;
24157;SDS011;12316;50.904;4.200;2023-04-10T12:18:38;3.97;;;3.58;;
24157;SDS011;12316;50.904;4.200;2023-04-10T12:21:04;7.10;;;3.65;;
24157;SDS011;12316;50.904;4.200;2023-04-10T12:23:31;4.95;;;4.00;;
24157;SDS011;12316;50.904;4.200;2023-04-10T12:26:13;4.47;;;4.00;;
24157;SDS011;12316;50.904;4.200;2023-04-10T12:28:41;5.82;;;4.18;;
24157;SDS011;12316;50.904;4.200;2023-04-10T12:31:14;5.00;;;4.50;;
24157;SDS011;12316;50.904;4.200;2023-04-10T12:33:42;6.68;;;4.80;;
24157;SDS011;12316;50.904;4.200;2023-04-10T12:36:19;6.18;;;5.03;;
24157;SDS011;12316;50.904;4.200;2023-04-10T12:38:50;6.50;;;4.80;;
24157;SDS011;12316;50.904;4.200;2023-04-10T12:41:22;7.30;;;5.20;;
24157;SDS011;12316;50.904;4.200;2023-04-10T12:43:50;6.78;;;5.40;;
24157;SDS011;12316;50.904;4.200;2023-04-10T12:46:24;6.05;;;5.28;;
24157;SDS011;12316;50.904;4.200;2023-04-10T12:48:51;8.27;;;5.40;;
24157;SDS011;12316;50.904;4.200;2023-04-10T12:51:17;6.47;;;5.20;;
24157;SDS011;12316;50.904;4.200;2023-04-10T12:53:43;7.20;;;5.18;;
24157;SDS011;12316;50.904;4.200;2023-04-10T12:56:10;6.35;;;5.40;;
24157;SDS011;12316;50.904;4.200;2023-04-10T12:58:36;8.05;;;5.50;;
24157;SDS011;12316;50.904;4.200;2023-04-10T13:01:06;6.93;;;5.30;;
24157;SDS011;12316;50.904;4.200;2023-04-10T13:03:38;6.38;;;5.28;;
24157;SDS011;12316;50.904;4.200;2023-04-10T13:06:04;7.82;;;5.80;;
24157;SDS011;12316;50.904;4.200;2023-04-10T13:08:31;5.97;;;5.38;;
24157;SDS011;12316;50.904;4.200;2023-04-10T13:10:57;6.57;;;5.38;;
24157;SDS011;12316;50.904;4.200;2023-04-10T13:13:31;6.90;;;5.68;;
24157;SDS011;12316;50.904;4.200;2023-04-10T13:15:57;6.03;;;5.43;;
24157;SDS011;12316;50.904;4.200;2023-04-10T13:18:23;7.30;;;5.57;;
24157;SDS011;12316;50.904;4.200;2023-04-10T13:20:49;6.43;;;5.32;;
24157;SDS011;12316;50.904;4.200;2023-04-10T13:23:15;6.15;;;5.18;;
24157;SDS011;12316;50.904;4.200;2023-04-10T13:25:41;7.25;;;5.43;;
24157;SDS011;12316;50.904;4.200;2023-04-10T13:28:07;5.40;;;4.90;;
24157;SDS011;12316;50.904;4.200;2023-04-10T13:30:36;5.35;;;4.85;;
24157;SDS011;12316;50.904;4.200;2023-04-10T13:33:04;5.70;;;4.80;;
24157;SDS011;12316;50.904;4.200;2023-04-10T13:35:30;5.53;;;4.90;;
24157;SDS011;12316;50.904;4.200;2023-04-10T13:37:56;5.28;;;4.78;;
24157;SDS011;12316;50.904;4.200;2023-04-10T13:40:21;8.27;;;5.00;;
24157;SDS011;12316;50.904;4.200;2023-04-10T13:42:47;5.18;;;4.63;;
24157;SDS011;12316;50.904;4.200;2023-04-10T13:45:13;5.55;;;4.47;;
24157;SDS011;12316;50.904;4.200;2023-04-10T13:47:39;4.72;;;4.15;;
24157;SDS011;12316;50.904;4.200;2023-04-10T13:50:05;4.70;;;4.30;;
24157;SDS011;12316;50.904;4.200;2023-04-10T13:52:31;4.50;;;3.88;;
24157;SDS011;12316;50.904;4.200;2023-04-10T13:54:57;4.90;;;4.40;;
24157;SDS011;12316;50.904;4.200;2023-04-10T13:57:22;4.50;;;4.10;;
24157;SDS011;12316;50.904;4.200;2023-04-10T13:59:49;4.50;;;4.10;;
24157;SDS011;12316;50.904;4.200;2023-04-10T14:02:15;4.80;;;4.30;;
24157;SDS011;12316;50.904;4.200;2023-04-10T14:04:40;6.32;;;4.85;;
24157;SDS011;12316;50.904;4.200;2023-04-10T14:07:07;4.38;;;3.97;;
24157;SDS011;12316;50.904;4.200;2023-04-10T14:09:33;5.30;;;4.05;;
24157;SDS011;12316;50.904;4.200;2023-04-10T14:11:59;6.53;;;4.32;;
24157;SDS011;12316;50.904;4.200;2023-04-10T14:14:25;6.25;;;4.30;;
24157;SDS011;12316;50.904;4.200;2023-04-10T14:16:51;5.45;;;4.43;;
24157;SDS011;12316;50.904;4.200;2023-04-10T14:19:17;4.20;;;3.80;;
24157;SDS011;12316;50.904;4.200;2023-04-10T14:21:42;5.20;;;3.90;;
24157;SDS011;12316;50.904;4.200;2023-04-10T14:24:08;5.25;;;3.78;;
24157;SDS011;12316;50.904;4.200;2023-04-10T14:26:34;5.63;;;3.53;;
24157;SDS011;12316;50.904;4.200;2023-04-10T14:29:00;3.20;;;2.90;;
24157;SDS011;12316;50.904;4.200;2023-04-10T14:31:26;2.50;;;2.30;;
24157;SDS011;12316;50.904;4.200;2023-04-10T14:33:51;3.85;;;2.33;;
24157;SDS011;12316;50.904;4.200;2023-04-10T14:36:17;3.88;;;2.20;;
24157;SDS011;12316;50.904;4.200;2023-04-10T14:38:44;5.65;;;2.40;;
24157;SDS011;12316;50.904;4.200;2023-04-10T14:41:10;4.88;;;2.63;;
24157;SDS011;12316;50.904;4.200;2023-04-10T14:43:36;5.28;;;2.63;;
24157;SDS011;12316;50.904;4.200;2023-04-10T14:46:01;3.38;;;2.60;;
24157;SDS011;12316;50.904;4.200;2023-04-10T14:48:27;3.63;;;3.08;;
24157;SDS011;12316;50.904;4.200;2023-04-10T14:50:53;3.88;;;3.47;;
24157;SDS011;12316;50.904;4.200;2023-04-10T14:53:20;5.38;;;3.28;;
24157;SDS011;12316;50.904;4.200;2023-04-10T14:55:47;4.57;;;3.47;;
24157;SDS011;12316;50.904;4.200;2023-04-10T14:58:13;4.07;;;3.28;;
24157;SDS011;12316;50.904;4.200;2023-04-10T15:00:38;6.63;;;3.50;;
24157;SDS011;12316;50.904;4.200;2023-04-10T15:03:04;4.63;;;3.55;;
24157;SDS011;12316;50.904;4.200;2023-04-10T15:05:30;4.78;;;3.88;;
24157;SDS011;12316;50.904;4.200;2023-04-10T15:07:56;5.47;;;3.30;;
24157;SDS011;12316;50.904;4.200;2023-04-10T15:10:21;4.40;;;3.80;;
24157;SDS011;12316;50.904;4.200;2023-04-10T15:12:47;5.38;;;3.65;;
24157;SDS011;12316;50.904;4.200;2023-04-10T15:15:13;4.10;;;3.60;;
24157;SDS011;12316;50.904;4.200;2023-04-10T15:17:38;6.20;;;4.10;;
24157;SDS011;12316;50.904;4.200;2023-04-10T15:20:05;7.15;;;4.68;;
24157;SDS011;12316;50.904;4.200;2023-04-10T15:22:31;6.75;;;4.32;;
24157;SDS011;12316;50.904;4.200;2023-04-10T15:24:58;7.72;;;4.97;;
24157;SDS011;12316;50.904;4.200;2023-04-10T15:27:23;8.52;;;4.95;;
24157;SDS011;12316;50.904;4.200;2023-04-10T15:29:49;8.88;;;5.93;;
24157;SDS011;12316;50.904;4.200;2023-04-10T15:32:15;6.15;;;5.40;;